createdAt,value
2022-09-17T00:00:52.444Z,9.00
2022-09-17T00:03:18.989Z,13.48
2022-09-17T00:05:45.395Z,8.63
2022-09-17T00:08:14.788Z,13.02
2022-09-17T00:10:42.146Z,11.82
2022-09-17T00:13:08.977Z,15.60
2022-09-17T00:15:42.472Z,13.15
2022-09-17T00:18:09.012Z,17.95
2022-09-17T00:20:39.523Z,11.55
2022-09-17T00:23:06.325Z,11.57
2022-09-17T00:25:32.853Z,8.13
2022-09-17T00:27:59.313Z,13.05
2022-09-17T00:30:25.753Z,17.58
2022-09-17T00:32:53.127Z,13.25
2022-09-17T00:35:19.564Z,10.77
2022-09-17T00:37:45.892Z,15.60
2022-09-17T00:40:12.411Z,10.63
2022-09-17T00:42:38.797Z,8.68
2022-09-17T00:45:05.436Z,13.95
2022-09-17T00:47:33.672Z,9.93
2022-09-17T00:50:05.652Z,12.68
2022-09-17T00:52:34.462Z,9.52
2022-09-17T00:55:07.834Z,11.68
2022-09-17T00:57:34.429Z,12.60
2022-09-17T01:00:00.969Z,8.73
2022-09-17T01:02:27.498Z,12.00
2022-09-17T01:04:54.090Z,11.02
2022-09-17T01:07:44.116Z,11.55
2022-09-17T01:10:20.884Z,11.80
2022-09-17T01:13:07.320Z,9.05
2022-09-17T01:15:36.571Z,12.07
2022-09-17T01:18:19.061Z,9.80
2022-09-17T01:20:48.676Z,9.32
2022-09-17T01:23:14.980Z,15.80
2022-09-17T01:25:54.828Z,9.02
2022-09-17T01:28:21.157Z,11.00
2022-09-17T01:30:59.361Z,11.35
2022-09-17T01:33:37.405Z,8.68
2022-09-17T01:36:22.582Z,11.07
2022-09-17T01:39:15.427Z,9.25
2022-09-17T01:41:54.034Z,8.80
2022-09-17T01:44:26.826Z,10.60
2022-09-17T01:46:54.914Z,8.73
2022-09-17T01:49:25.349Z,10.07
2022-09-17T01:51:53.853Z,13.60
2022-09-17T01:54:28.853Z,10.60
2022-09-17T01:56:58.298Z,17.85
2022-09-17T01:59:30.482Z,15.50
2022-09-17T02:02:00.600Z,17.50
2022-09-17T02:04:37.304Z,16.45
2022-09-17T02:07:05.988Z,16.75
2022-09-17T02:09:41.862Z,14.30
2022-09-17T02:12:12.324Z,15.93
2022-09-17T02:14:53.650Z,18.75
2022-09-17T02:17:26.905Z,9.93
2022-09-17T02:19:54.572Z,12.43
2022-09-17T02:22:27.777Z,11.18
2022-09-17T02:24:59.958Z,11.82
2022-09-17T02:27:26.340Z,16.80
2022-09-17T02:29:52.688Z,12.10
2022-09-17T02:32:19.827Z,7.63
2022-09-17T02:34:46.242Z,13.07
2022-09-17T02:37:12.700Z,11.38
2022-09-17T02:39:39.049Z,8.43
2022-09-17T02:42:17.368Z,16.40
2022-09-17T02:44:50.452Z,11.40
2022-09-17T02:47:27.984Z,6.60
2022-09-17T02:50:06.488Z,14.82
2022-09-17T02:52:46.813Z,12.85
2022-09-17T02:55:31.973Z,10.05
2022-09-17T02:58:01.244Z,12.63
2022-09-17T03:00:28.731Z,15.93
2022-09-17T03:03:00.914Z,17.58
2022-09-17T03:05:28.245Z,8.77
2022-09-17T03:07:55.592Z,9.90
2022-09-17T03:10:22.053Z,10.23
2022-09-17T03:12:48.642Z,13.40
2022-09-17T03:15:15.022Z,7.90
2022-09-17T03:17:41.530Z,9.35
2022-09-17T03:20:08.443Z,15.60
2022-09-17T03:22:35.629Z,7.28
2022-09-17T03:25:02.451Z,15.60
2022-09-17T03:27:29.842Z,14.52
2022-09-17T03:29:56.261Z,14.15
2022-09-17T03:32:22.589Z,9.75
2022-09-17T03:34:48.926Z,10.57
2022-09-17T03:37:15.557Z,11.77
2022-09-17T03:39:41.904Z,11.32
2022-09-17T03:42:08.297Z,8.38
2022-09-17T03:44:34.666Z,8.10
2022-09-17T03:47:01.017Z,6.03
2022-09-17T03:49:27.445Z,6.82
2022-09-17T03:51:53.857Z,8.68
2022-09-17T03:54:20.325Z,12.82
2022-09-17T03:56:46.758Z,16.73
2022-09-17T03:59:13.221Z,11.75
2022-09-17T04:01:39.851Z,13.77
2022-09-17T04:04:06.654Z,13.15
2022-09-17T04:06:33.060Z,12.68
2022-09-17T04:09:00.908Z,11.65
2022-09-17T04:11:27.533Z,7.82
2022-09-17T04:13:53.900Z,9.70
2022-09-17T04:16:20.271Z,9.25
2022-09-17T04:18:46.728Z,10.95
2022-09-17T04:21:13.101Z,10.15
2022-09-17T04:23:39.441Z,12.38
2022-09-17T04:26:05.956Z,11.45
2022-09-17T04:28:32.305Z,10.20
2022-09-17T04:30:58.705Z,12.52
2022-09-17T04:33:25.106Z,11.95
2022-09-17T04:35:51.489Z,13.88
2022-09-17T04:38:20.528Z,14.60
2022-09-17T04:40:46.972Z,9.75
2022-09-17T04:43:13.577Z,7.03
2022-09-17T04:45:39.972Z,13.65
2022-09-17T04:48:06.359Z,11.98
2022-09-17T04:50:32.874Z,14.48
2022-09-17T04:52:59.337Z,12.52
2022-09-17T04:55:26.393Z,10.23
2022-09-17T04:57:53.401Z,11.10
2022-09-17T05:00:20.786Z,11.40
2022-09-17T05:02:48.969Z,16.25
2022-09-17T05:05:15.909Z,12.45
2022-09-17T05:07:42.324Z,14.30
2022-09-17T05:10:09.617Z,11.98
2022-09-17T05:12:36.003Z,9.75
2022-09-17T05:15:02.441Z,8.43
2022-09-17T05:17:28.917Z,11.25
2022-09-17T05:19:55.249Z,8.10
2022-09-17T05:22:21.795Z,7.65
2022-09-17T05:24:48.210Z,10.43
2022-09-17T05:27:14.770Z,9.40
2022-09-17T05:29:41.084Z,8.63
2022-09-17T05:32:07.458Z,10.57
2022-09-17T05:34:33.996Z,12.85
2022-09-17T05:37:00.391Z,10.25
2022-09-17T05:39:26.718Z,8.55
2022-09-17T05:41:53.301Z,9.02
2022-09-17T05:44:19.745Z,11.70
2022-09-17T05:46:46.425Z,7.32
2022-09-17T05:49:13.291Z,11.90
2022-09-17T05:51:39.703Z,7.07
2022-09-17T05:54:06.168Z,8.68
2022-09-17T05:56:32.704Z,12.35
2022-09-17T05:58:59.140Z,13.00
2022-09-17T06:01:25.897Z,8.05
2022-09-17T06:03:52.509Z,7.30
2022-09-17T06:06:18.994Z,9.57
2022-09-17T06:08:45.354Z,9.63
2022-09-17T06:11:11.946Z,14.13
2022-09-17T06:13:38.385Z,11.88
2022-09-17T06:16:04.901Z,13.25
2022-09-17T06:18:31.852Z,10.35
2022-09-17T06:21:02.241Z,15.05
2022-09-17T06:23:33.080Z,10.90
2022-09-17T06:26:00.237Z,8.77
2022-09-17T06:28:27.311Z,7.00
2022-09-17T06:30:55.820Z,7.07
2022-09-17T06:33:22.873Z,8.55
2022-09-17T06:35:49.599Z,8.70
2022-09-17T06:38:16.094Z,9.55
2022-09-17T06:40:42.649Z,8.82
2022-09-17T06:43:09.031Z,11.32
2022-09-17T06:45:35.341Z,9.23
2022-09-17T06:48:03.773Z,11.63
2022-09-17T06:50:31.171Z,7.22
2022-09-17T06:52:57.528Z,8.25
2022-09-17T06:55:24.061Z,10.43
2022-09-17T06:57:50.482Z,9.82
2022-09-17T07:00:16.894Z,14.13
2022-09-17T07:02:44.346Z,12.85
2022-09-17T07:05:10.707Z,7.70
2022-09-17T07:07:37.260Z,7.75
2022-09-17T07:10:03.685Z,7.63
2022-09-17T07:12:30.005Z,6.45
2022-09-17T07:14:56.323Z,8.10
2022-09-17T07:17:23.194Z,4.00
2022-09-17T07:19:49.496Z,6.72
2022-09-17T07:22:16.426Z,7.53
2022-09-17T07:24:42.791Z,6.03
2022-09-17T07:27:09.128Z,5.88
2022-09-17T07:29:35.428Z,6.93
2022-09-17T07:32:01.812Z,7.82
2022-09-17T07:34:29.016Z,6.00
2022-09-17T07:36:55.358Z,7.68
2022-09-17T07:39:21.669Z,7.13
2022-09-17T07:41:48.009Z,6.93
2022-09-17T07:44:14.364Z,9.23
2022-09-17T07:46:41.741Z,7.57
2022-09-17T07:49:08.234Z,7.00
2022-09-17T07:51:34.551Z,6.63
2022-09-17T07:54:02.217Z,6.70
2022-09-17T07:56:28.661Z,7.53
2022-09-17T07:58:55.153Z,6.47
2022-09-17T08:01:22.498Z,6.30
2022-09-17T08:03:50.297Z,4.85
2022-09-17T08:06:21.037Z,6.90
2022-09-17T08:08:47.705Z,4.28
2022-09-17T08:11:23.666Z,6.32
2022-09-17T08:13:59.755Z,7.43
2022-09-17T08:16:26.286Z,6.38
2022-09-17T08:18:56.610Z,5.30
2022-09-17T08:21:23.882Z,4.75
2022-09-17T08:23:50.245Z,7.97
2022-09-17T08:26:22.642Z,5.25
2022-09-17T08:31:16.775Z,7.60
2022-09-17T08:33:43.550Z,6.25
2022-09-17T08:36:10.865Z,3.63
2022-09-17T08:38:38.592Z,6.97
2022-09-17T08:41:12.579Z,5.72
2022-09-17T08:43:50.706Z,5.38
2022-09-17T08:46:17.093Z,8.13
2022-09-17T08:49:03.706Z,8.00
2022-09-17T08:51:55.330Z,7.10
2022-09-17T08:54:21.604Z,4.82
2022-09-17T08:56:52.293Z,6.35
2022-09-17T08:59:21.695Z,5.25
2022-09-17T09:01:51.168Z,7.55
2022-09-17T09:04:20.729Z,5.93
2022-09-17T09:06:49.843Z,5.03
2022-09-17T09:09:18.938Z,7.15
2022-09-17T09:11:47.095Z,6.43
2022-09-17T09:14:21.979Z,2.63
2022-09-17T09:16:49.634Z,2.40
2022-09-17T09:19:19.303Z,4.65
2022-09-17T09:21:51.979Z,4.68
2022-09-17T09:24:18.653Z,3.78
2022-09-17T09:26:58.622Z,6.07
2022-09-17T09:29:34.781Z,6.75
2022-09-17T09:32:19.946Z,7.70
2022-09-17T09:34:47.976Z,3.83
2022-09-17T09:37:24.244Z,5.60
2022-09-17T09:39:52.740Z,2.47
2022-09-17T09:42:23.980Z,6.80
2022-09-17T09:44:50.964Z,3.13
2022-09-17T09:47:23.022Z,4.45
2022-09-17T09:50:05.037Z,2.83
2022-09-17T09:52:38.223Z,4.13
2022-09-17T09:55:13.215Z,7.13
2022-09-17T09:57:43.763Z,5.35
2022-09-17T10:00:26.908Z,3.28
2022-09-17T10:02:56.980Z,4.00
2022-09-17T10:05:24.137Z,3.22
2022-09-17T10:07:50.920Z,3.08
2022-09-17T10:10:17.697Z,6.13
2022-09-17T10:12:44.878Z,1.10
2022-09-17T10:15:25.601Z,0.95
2022-09-17T10:18:10.932Z,1.75
2022-09-17T10:20:48.890Z,1.45
2022-09-17T10:23:15.997Z,2.78
2022-09-17T10:25:46.078Z,4.35
2022-09-17T10:28:24.580Z,5.10
2022-09-17T10:31:05.184Z,3.20
2022-09-17T10:33:37.086Z,2.33
2022-09-17T10:36:06.838Z,2.63
2022-09-17T10:38:35.476Z,2.67
2022-09-17T10:41:08.410Z,5.53
2022-09-17T10:43:35.355Z,4.78
2022-09-17T10:46:02.426Z,3.70
2022-09-17T10:48:32.554Z,3.50
2022-09-17T10:51:01.653Z,4.80
2022-09-17T10:53:28.800Z,4.95
2022-09-17T10:56:06.178Z,7.05
2022-09-17T10:58:56.181Z,12.63
2022-09-17T11:01:44.573Z,13.20
2022-09-17T11:04:30.375Z,7.95
2022-09-17T11:07:05.586Z,3.25
2022-09-17T11:09:32.581Z,6.38
2022-09-17T11:12:17.934Z,8.48
2022-09-17T11:14:51.046Z,2.13
2022-09-17T11:17:36.693Z,6.00
2022-09-17T11:20:06.455Z,3.38
2022-09-17T11:22:45.511Z,4.60
2022-09-17T11:25:24.569Z,5.65
2022-09-17T11:27:54.522Z,3.70
2022-09-17T11:30:22.073Z,4.05
2022-09-17T11:33:07.387Z,6.55
2022-09-17T11:35:50.973Z,4.15
2022-09-17T11:38:24.193Z,4.38
2022-09-17T11:40:53.588Z,3.10
2022-09-17T11:43:31.244Z,5.88
2022-09-17T11:46:00.350Z,2.20
2022-09-17T11:48:55.925Z,3.33
2022-09-17T11:51:26.247Z,3.75
2022-09-17T11:53:56.892Z,4.88
2022-09-17T11:56:26.012Z,4.85
2022-09-17T11:59:02.161Z,4.97
2022-09-17T12:01:38.108Z,7.38
2022-09-17T12:04:10.625Z,5.85
2022-09-17T12:09:15.998Z,7.63
2022-09-17T12:11:47.061Z,4.57
2022-09-17T12:14:25.082Z,6.93
2022-09-17T12:16:53.438Z,8.02
2022-09-17T12:19:23.861Z,8.63
2022-09-17T12:21:58.885Z,8.48
2022-09-17T12:24:29.229Z,9.18
2022-09-17T12:26:55.508Z,5.60
2022-09-17T12:29:31.073Z,5.50
2022-09-17T12:32:16.140Z,5.38
2022-09-17T12:35:00.915Z,8.88
2022-09-17T12:37:34.066Z,9.20
2022-09-17T12:40:00.391Z,5.93
2022-09-17T12:42:37.029Z,4.90
2022-09-17T12:45:22.036Z,4.28
2022-09-17T12:47:51.576Z,3.53
2022-09-17T12:50:37.181Z,3.58
2022-09-17T12:53:22.480Z,6.40
2022-09-17T12:56:07.625Z,4.45
2022-09-17T12:58:42.748Z,6.28
2022-09-17T13:01:32.447Z,7.40
2022-09-17T13:04:11.513Z,6.03
2022-09-17T13:06:37.856Z,7.70
2022-09-17T13:09:05.290Z,9.55
2022-09-17T13:11:50.367Z,5.68
2022-09-17T13:14:19.888Z,4.68
2022-09-17T13:17:00.402Z,5.35
2022-09-17T13:19:39.386Z,3.88
2022-09-17T13:22:07.323Z,4.20
2022-09-17T13:24:34.547Z,4.38
2022-09-17T13:27:02.076Z,3.03
2022-09-17T13:29:54.226Z,3.70
2022-09-17T13:32:32.920Z,3.03
2022-09-17T13:35:11.141Z,5.13
2022-09-17T13:37:44.721Z,6.60
2022-09-17T13:40:21.731Z,5.70
2022-09-17T13:42:49.628Z,4.85
2022-09-17T13:45:17.469Z,1.67
2022-09-17T13:47:53.490Z,4.25
2022-09-17T13:50:26.138Z,3.47
2022-09-17T13:52:53.367Z,4.47
2022-09-17T13:55:31.133Z,5.55
2022-09-17T13:57:57.930Z,6.20
2022-09-17T14:00:43.188Z,10.38
2022-09-17T14:03:28.505Z,3.55
2022-09-17T14:05:55.163Z,2.85
2022-09-17T14:08:28.540Z,2.63
2022-09-17T14:10:55.493Z,2.33
2022-09-17T14:13:37.951Z,4.20
2022-09-17T14:16:23.137Z,3.25
2022-09-17T14:19:01.441Z,4.30
2022-09-17T14:21:32.844Z,4.13
2022-09-17T14:24:01.361Z,4.47
2022-09-17T14:26:46.704Z,7.95
2022-09-17T14:29:33.317Z,6.50
2022-09-17T14:31:59.729Z,5.07
2022-09-17T14:34:26.750Z,8.18
2022-09-17T14:36:54.028Z,8.68
2022-09-17T14:39:39.589Z,6.28
2022-09-17T14:42:12.989Z,6.10
2022-09-17T14:44:48.105Z,5.45
2022-09-17T14:47:16.005Z,4.22
2022-09-17T14:49:43.005Z,5.60
2022-09-17T14:52:28.656Z,4.65
2022-09-17T14:55:10.198Z,12.25
2022-09-17T14:57:36.997Z,4.57
2022-09-17T15:00:07.698Z,5.70
2022-09-17T15:02:43.222Z,5.40
2022-09-17T15:07:39.947Z,5.43
2022-09-17T15:10:13.381Z,11.70
2022-09-17T15:12:39.769Z,6.60
2022-09-17T15:15:06.794Z,8.40
2022-09-17T15:17:33.636Z,4.53
2022-09-17T15:20:02.933Z,4.20
2022-09-17T15:22:51.116Z,7.25
2022-09-17T15:25:23.784Z,7.20
2022-09-17T15:27:50.575Z,7.53
2022-09-17T15:30:21.358Z,6.22
2022-09-17T15:32:50.854Z,8.32
2022-09-17T15:35:19.109Z,9.00
2022-09-17T15:38:11.517Z,9.38
2022-09-17T15:40:34.472Z,7.38
2022-09-17T15:43:00.816Z,6.15
2022-09-17T15:45:28.697Z,7.85
2022-09-17T15:47:56.106Z,11.40
2022-09-17T15:50:24.045Z,6.45
2022-09-17T15:52:51.593Z,7.18
2022-09-17T15:55:31.314Z,7.88
2022-09-17T15:57:59.338Z,6.40
2022-09-17T16:00:26.109Z,8.90
2022-09-17T16:02:52.959Z,8.05
2022-09-17T16:05:25.640Z,4.80
2022-09-17T16:07:53.016Z,9.02
2022-09-17T16:10:20.161Z,7.65
2022-09-17T16:12:49.218Z,11.82
2022-09-17T16:15:17.366Z,8.52
2022-09-17T16:17:46.181Z,9.88
2022-09-17T16:20:13.057Z,7.93
2022-09-17T16:22:39.888Z,6.35
2022-09-17T16:25:06.396Z,8.20
2022-09-17T16:27:42.520Z,9.70
2022-09-17T16:30:13.778Z,10.38
2022-09-17T16:32:40.189Z,9.75
2022-09-17T16:35:08.150Z,7.25
2022-09-17T16:37:34.649Z,11.98
2022-09-17T16:40:01.284Z,5.22
2022-09-17T16:42:32.305Z,11.25
2022-09-17T16:45:01.004Z,7.53
2022-09-17T16:47:27.413Z,10.80
2022-09-17T16:49:53.885Z,12.02
2022-09-17T16:52:20.237Z,11.85
2022-09-17T16:54:46.605Z,8.77
2022-09-17T16:57:12.966Z,8.27
2022-09-17T16:59:39.330Z,10.98
2022-09-17T17:02:06.525Z,14.00
2022-09-17T17:04:33.082Z,8.95
2022-09-17T17:07:00.645Z,6.05
2022-09-17T17:09:27.583Z,9.30
2022-09-17T17:11:54.037Z,8.63
2022-09-17T17:14:20.660Z,12.23
2022-09-17T17:16:47.241Z,12.90
2022-09-17T17:19:13.569Z,8.02
2022-09-17T17:21:42.979Z,8.68
2022-09-17T17:24:12.849Z,10.50
2022-09-17T17:26:39.214Z,12.93
2022-09-17T17:29:05.578Z,8.18
2022-09-17T17:31:31.903Z,13.43
2022-09-17T17:33:58.305Z,9.32
2022-09-17T17:36:25.664Z,16.45
2022-09-17T17:38:56.095Z,12.57
2022-09-17T17:41:25.360Z,13.52
2022-09-17T17:43:55.598Z,14.43
2022-09-17T17:46:23.173Z,13.40
2022-09-17T17:48:50.213Z,5.07
2022-09-17T17:51:18.621Z,6.55
2022-09-17T17:53:45.425Z,5.35
2022-09-17T17:56:12.930Z,3.65
2022-09-17T17:58:40.032Z,3.47
2022-09-17T18:01:13.958Z,4.18
2022-09-17T18:03:40.602Z,6.50
2022-09-17T18:06:07.436Z,2.80
2022-09-17T18:08:37.871Z,4.63
2022-09-17T18:11:04.625Z,4.53
2022-09-17T18:13:31.282Z,1.40
2022-09-17T18:15:59.036Z,2.95
2022-09-17T18:18:26.250Z,3.40
2022-09-17T18:20:54.737Z,3.28
2022-09-17T18:23:21.305Z,3.72
2022-09-17T18:25:58.076Z,4.07
2022-09-17T18:28:24.986Z,1.98
2022-09-17T18:30:51.489Z,3.65
2022-09-17T18:33:19.175Z,4.40
2022-09-17T18:35:45.939Z,4.45
2022-09-17T18:38:12.302Z,4.45
2022-09-17T18:40:38.790Z,3.00
2022-09-17T18:43:05.253Z,3.72
2022-09-17T18:45:32.097Z,3.72
2022-09-17T18:47:58.578Z,2.80
2022-09-17T18:50:24.933Z,3.50
2022-09-17T18:52:51.850Z,6.40
2022-09-17T18:55:18.249Z,1.90
2022-09-17T18:57:44.637Z,4.20
2022-09-17T19:00:11.528Z,2.42
2022-09-17T19:02:38.926Z,3.70
2022-09-17T19:05:05.541Z,4.97
2022-09-17T19:07:31.918Z,4.75
2022-09-17T19:09:58.325Z,6.75
2022-09-17T19:12:24.663Z,8.85
2022-09-17T19:14:51.075Z,2.92
2022-09-17T19:17:17.638Z,4.07
2022-09-17T19:19:44.078Z,4.18
2022-09-17T19:22:10.391Z,1.85
2022-09-17T19:24:37.035Z,5.00
2022-09-17T19:27:04.121Z,3.75
2022-09-17T19:29:30.513Z,6.05
2022-09-17T19:31:56.808Z,6.07
2022-09-17T19:34:23.196Z,4.22
2022-09-17T19:36:49.605Z,6.03
2022-09-17T19:39:17.565Z,5.00
2022-09-17T19:41:44.020Z,5.78
2022-09-17T19:44:10.332Z,4.60
2022-09-17T19:46:36.729Z,10.52
2022-09-17T19:49:03.269Z,6.55
2022-09-17T19:51:29.777Z,6.38
2022-09-17T19:53:56.978Z,7.45
2022-09-17T19:56:24.770Z,5.10
2022-09-17T19:58:51.206Z,8.30
2022-09-17T20:01:19.198Z,6.75
2022-09-17T20:03:46.060Z,5.85
2022-09-17T20:06:14.086Z,5.30
2022-09-17T20:08:47.504Z,8.30
2022-09-17T20:11:14.520Z,4.35
2022-09-17T20:13:40.970Z,8.80
2022-09-17T20:16:09.007Z,6.43
2022-09-17T20:18:37.226Z,6.07
2022-09-17T20:21:12.457Z,5.88
2022-09-17T20:23:38.924Z,3.05
2022-09-17T20:26:05.780Z,5.32
2022-09-17T20:28:32.284Z,9.20
2022-09-17T20:31:03.185Z,2.35
2022-09-17T20:33:30.089Z,5.22
2022-09-17T20:36:15.611Z,6.05
2022-09-17T20:39:10.723Z,3.90
2022-09-17T20:41:28.943Z,2.45
2022-09-17T20:43:55.565Z,9.07
2022-09-17T20:46:28.395Z,4.40
2022-09-17T20:48:57.272Z,6.15
2022-09-17T20:51:24.598Z,6.68
2022-09-17T20:53:51.280Z,4.25
2022-09-17T20:56:19.085Z,2.45
2022-09-17T20:58:50.031Z,3.90
2022-09-17T21:01:21.781Z,4.60
2022-09-17T21:03:50.125Z,4.43
2022-09-17T21:06:21.138Z,4.45
2022-09-17T21:08:47.596Z,5.10
2022-09-17T21:11:14.942Z,3.60
2022-09-17T21:13:41.873Z,7.68
2022-09-17T21:16:09.809Z,6.60
2022-09-17T21:18:39.565Z,9.75
2022-09-17T21:21:13.658Z,4.90
2022-09-17T21:23:40.557Z,6.78
2022-09-17T21:26:14.662Z,6.93
2022-09-17T21:28:41.653Z,7.32
2022-09-17T21:31:11.079Z,8.45
2022-09-17T21:33:39.137Z,8.13
2022-09-17T21:36:06.702Z,6.28
2022-09-17T21:38:33.248Z,8.52
2022-09-17T21:41:00.560Z,12.23
2022-09-17T21:43:27.334Z,11.00
2022-09-17T21:46:01.038Z,8.43
2022-09-17T21:48:27.740Z,9.75
2022-09-17T21:50:54.193Z,7.55
2022-09-17T21:53:20.542Z,7.93
2022-09-17T21:55:46.950Z,7.88
2022-09-17T21:58:13.344Z,8.23
2022-09-17T22:00:39.723Z,9.65
2022-09-17T22:03:06.201Z,10.18
2022-09-17T22:05:32.629Z,9.00
2022-09-17T22:07:59.001Z,10.40
2022-09-17T22:10:25.442Z,9.10
2022-09-17T22:12:51.874Z,8.63
2022-09-17T22:15:18.213Z,8.88
2022-09-17T22:17:44.638Z,7.10
2022-09-17T22:20:11.108Z,13.60
2022-09-17T22:22:37.573Z,12.10
2022-09-17T22:25:04.188Z,8.10
2022-09-17T22:27:32.199Z,10.30
2022-09-17T22:29:58.632Z,14.68
2022-09-17T22:32:24.933Z,13.27
2022-09-17T22:34:52.970Z,8.07
2022-09-17T22:37:19.874Z,9.23
2022-09-17T22:39:46.215Z,6.32
2022-09-17T22:42:12.542Z,8.05
2022-09-17T22:44:38.977Z,6.90
2022-09-17T22:47:05.360Z,9.00
2022-09-17T22:49:31.738Z,8.90
2022-09-17T22:51:58.079Z,8.18
2022-09-17T22:54:24.508Z,10.55
2022-09-17T22:56:50.896Z,12.45
2022-09-17T22:59:18.225Z,8.02
2022-09-17T23:01:45.018Z,6.55
2022-09-17T23:04:11.435Z,12.25
2022-09-17T23:06:39.225Z,8.52
2022-09-17T23:09:06.212Z,13.45
2022-09-17T23:11:34.090Z,10.20
2022-09-17T23:14:02.259Z,13.10
2022-09-17T23:16:29.092Z,14.52
2022-09-17T23:18:55.430Z,7.78
2022-09-17T23:21:21.885Z,14.52
2022-09-17T23:23:49.650Z,8.05
2022-09-17T23:26:20.695Z,12.65
2022-09-17T23:28:47.703Z,11.75
2022-09-17T23:31:17.571Z,13.38
2022-09-17T23:33:44.431Z,9.63
2022-09-17T23:36:15.295Z,11.23
2022-09-17T23:38:42.433Z,7.28
2022-09-17T23:41:17.965Z,11.52
2022-09-17T23:43:45.584Z,9.90
2022-09-17T23:46:12.399Z,9.57
2022-09-17T23:48:43.327Z,7.93
2022-09-17T23:51:09.974Z,8.48
2022-09-17T23:53:37.090Z,10.30
2022-09-17T23:56:04.200Z,10.73
2022-09-17T23:58:33.624Z,8.40
